Time;durP1;ratioP1;P1;durP2;ratioP2;P2;SDS_P1;SDS_P2;PMS_P1;PMS_P2;Temp;Humidity;BMP_temperature;BMP_pressure;BME280_temperature;BME280_humidity;BME280_pressure;Samples;Min_cycle;Max_cycle;Signal;HPM_P1;HPM_P2
2022/05/10 00:00:20;;;;;;;11.88;9.40;;;;;;;19.73;50.47;100493.25;4975127;28;20053;-80
2022/05/10 00:02:50;;;;;;;12.32;8.68;;;;;;;19.69;50.66;100491.09;4976840;28;20051;-80
2022/05/10 00:05:30;;;;;;;14.02;8.63;;;;;;;19.66;50.97;100492.25;4983381;28;20402;-80
2022/05/10 00:07:57;;;;;;;12.52;8.52;;;;;;;19.63;50.79;100487.22;4984073;28;20058;-80
2022/05/10 00:10:24;;;;;;;14.43;8.65;;;;;;;19.63;50.88;100487.22;4965326;28;20038;-80
2022/05/10 00:12:53;;;;;;;12.77;8.85;;;;;;;19.60;50.71;100487.59;4962180;28;20441;-80
2022/05/10 00:15:20;;;;;;;11.38;8.45;;;;;;;19.58;50.95;100484.25;4957671;28;20043;-80
2022/05/10 00:17:48;;;;;;;10.73;8.55;;;;;;;19.56;50.97;100485.44;4982160;28;20050;-80
2022/05/10 00:20:18;;;;;;;12.43;8.80;;;;;;;19.53;51.14;100489.31;4975366;28;20435;-80
2022/05/10 00:22:45;;;;;;;10.38;8.85;;;;;;;19.52;51.08;100491.19;4967029;28;20053;-80
2022/05/10 00:25:16;;;;;;;10.80;7.82;;;;;;;19.48;51.05;100487.16;4941916;28;20043;-80
2022/05/10 00:27:42;;;;;;;11.80;8.05;;;;;;;19.47;51.02;100487.34;4982214;28;20038;-80
2022/05/10 00:30:10;;;;;;;10.60;8.77;;;;;;;19.42;51.00;100487.88;4952405;28;20425;-86
2022/05/10 00:32:38;;;;;;;12.13;8.82;;;;;;;19.39;51.17;100482.84;4960165;28;20065;-85
2022/05/10 00:35:15;;;;;;;11.32;9.05;;;;;;;19.38;51.18;100488.41;4963082;28;20487;-83
2022/05/10 00:37:44;;;;;;;10.38;8.25;;;;;;;19.34;51.12;100490.63;4977344;28;20466;-86
2022/05/10 00:40:12;;;;;;;11.13;9.70;;;;;;;19.32;51.07;100486.44;4977474;28;20046;-86
2022/05/10 00:42:49;;;;;;;12.07;9.43;;;;;;;19.18;51.31;100488.00;4966117;28;20046;-85
2022/05/10 00:45:25;;;;;;;11.10;8.63;;;;;;;19.09;51.52;100485.34;4962061;28;20050;-86
2022/05/10 00:47:59;;;;;;;12.18;8.77;;;;;;;19.08;51.19;100483.69;4936597;28;20048;-86
2022/05/10 00:50:34;;;;;;;9.93;8.30;;;;;;;19.07;51.56;100476.63;4946922;28;20054;-86
2022/05/10 00:53:07;;;;;;;13.10;8.57;;;;;;;19.09;51.67;100474.59;4949293;28;20415;-85
2022/05/10 00:55:45;;;;;;;9.32;8.02;;;;;;;19.08;51.74;100472.06;4978567;28;20684;-86
2022/05/10 00:58:14;;;;;;;10.48;8.30;;;;;;;19.07;51.38;100473.91;4946569;28;20395;-85
2022/05/10 01:00:41;;;;;;;10.15;8.30;;;;;;;19.06;51.57;100469.56;4967863;28;20042;-86
2022/05/10 01:03:17;;;;;;;9.70;8.20;;;;;;;19.03;51.52;100464.53;4977270;28;20050;-85
2022/05/10 01:05:49;;;;;;;13.27;8.68;;;;;;;19.03;51.41;100463.66;4962211;28;20483;-85
2022/05/10 01:08:22;;;;;;;11.07;8.30;;;;;;;18.95;51.42;100461.03;4961158;28;20042;-87
2022/05/10 01:10:56;;;;;;;10.45;7.80;;;;;;;18.94;51.47;100460.19;4967883;28;20046;-88
2022/05/10 01:13:32;;;;;;;11.30;8.52;;;;;;;18.88;51.49;100455.53;4964357;28;20046;-87
2022/05/10 01:16:02;;;;;;;9.30;8.02;;;;;;;18.88;51.43;100458.22;4977384;28;20573;-87
2022/05/10 01:18:29;;;;;;;13.68;7.65;;;;;;;18.90;51.62;100448.09;4981904;28;20050;-88
2022/05/10 01:21:02;;;;;;;12.82;7.88;;;;;;;18.90;51.43;100449.94;4974698;28;20043;-87
2022/05/10 01:23:59;;;;;;;9.15;7.63;;;;;;;18.83;51.80;100447.97;4972850;28;20105;-87
2022/05/10 01:26:47;;;;;;;9.60;7.75;;;;;;;18.81;51.69;100444.59;4929730;28;20054;-86
2022/05/10 01:29:52;;;;;;;10.18;8.18;;;;;;;18.79;51.57;100446.63;4946599;28;20549;-85
2022/05/10 01:35:17;;;;;;;9.48;8.23;;;;;;;18.78;51.51;100444.97;4920147;28;20129;-86
2022/05/10 01:37:47;;;;;;;10.27;7.72;;;;;;;18.74;51.51;100443.59;4966466;28;20066;-86
2022/05/10 01:40:22;;;;;;;9.65;8.00;;;;;;;18.68;52.03;100441.59;4991564;28;20494;-86
2022/05/10 01:42:56;;;;;;;11.95;7.97;;;;;;;18.68;51.74;100443.47;4957851;28;20042;-86
2022/05/10 01:45:29;;;;;;;10.30;8.10;;;;;;;18.64;52.05;100435.72;4979119;28;20046;-86
2022/05/10 01:47:59;;;;;;;10.57;8.27;;;;;;;18.62;51.74;100436.91;4971439;28;20047;-85
2022/05/10 01:50:46;;;;;;;12.18;8.18;;;;;;;18.56;52.36;100437.59;4974149;28;20050;-86
2022/05/10 01:53:25;;;;;;;10.23;8.50;;;;;;;18.55;52.10;100436.78;4979257;28;20402;-86
2022/05/10 01:55:53;;;;;;;8.98;8.07;;;;;;;18.54;52.03;100439.63;4972580;28;20313;-86
2022/05/10 01:58:23;;;;;;;13.43;8.10;;;;;;;18.49;51.99;100440.13;4976915;28;20046;-86
2022/05/10 02:00:57;;;;;;;15.35;8.32;;;;;;;18.48;52.35;100429.56;4973964;28;20046;-87
2022/05/10 02:03:35;;;;;;;10.85;7.70;;;;;;;18.44;52.28;100442.50;4962305;28;20042;-87
2022/05/10 02:06:11;;;;;;;12.02;8.52;;;;;;;18.42;52.12;100440.00;4960607;28;20045;-87
2022/05/10 02:08:51;;;;;;;11.00;8.13;;;;;;;18.37;52.42;100436.16;4922400;28;20114;-87
2022/05/10 02:11:18;;;;;;;12.27;8.88;;;;;;;18.38;51.94;100435.97;4935988;28;20138;-87
2022/05/10 02:14:00;;;;;;;12.63;8.02;;;;;;;18.34;52.22;100436.47;4926387;28;20411;-87
2022/05/10 02:16:32;;;;;;;10.35;8.55;;;;;;;18.30;52.05;100437.84;4906063;28;20762;-87
2022/05/10 02:19:10;;;;;;;11.35;7.97;;;;;;;18.31;52.38;100434.13;4940851;28;20054;-87
2022/05/10 02:21:56;;;;;;;9.23;8.18;;;;;;;18.27;52.59;100428.28;4909025;28;20065;-87
2022/05/10 02:24:33;;;;;;;10.32;8.10;;;;;;;18.28;52.69;100429.09;4924082;28;20434;-88
2022/05/10 02:27:13;;;;;;;8.80;7.90;;;;;;;18.23;52.61;100433.13;4935179;28;20047;-87
2022/05/10 02:29:45;;;;;;;10.15;8.27;;;;;;;18.23;52.70;100430.44;4904040;28;20642;-88
2022/05/10 02:35:06;;;;;;;11.48;7.90;;;;;;;18.20;52.41;100427.28;4930955;28;20504;-86
2022/05/10 02:37:33;;;;;;;11.48;7.97;;;;;;;18.17;52.47;100424.94;4935335;28;20084;-85
2022/05/10 02:40:00;;;;;;;10.60;7.68;;;;;;;18.16;52.53;100424.06;4922011;28;20047;-85
2022/05/10 02:42:27;;;;;;;10.13;8.43;;;;;;;18.12;52.28;100427.28;4901584;28;20490;-86
2022/05/10 02:44:55;;;;;;;10.95;8.32;;;;;;;18.11;52.59;100417.53;4948041;28;20785;-87
2022/05/10 02:47:40;;;;;;;9.63;8.13;;;;;;;18.11;52.81;100414.84;4942134;28;20505;-87
2022/05/10 02:50:29;;;;;;;10.60;7.97;;;;;;;18.08;52.60;100413.34;4942164;28;20066;-88
2022/05/10 02:52:55;;;;;;;10.88;7.93;;;;;;;18.09;52.44;100415.03;4901613;28;20137;-88
2022/05/10 02:55:28;;;;;;;11.38;9.30;;;;;;;18.04;52.69;100413.84;4957609;28;20182;-88
2022/05/10 02:58:00;;;;;;;11.98;8.60;;;;;;;18.02;52.63;100415.88;4925513;28;20089;-87
2022/05/10 03:00:27;;;;;;;11.27;8.55;;;;;;;18.02;52.56;100416.72;4934681;28;20047;-80
2022/05/10 03:03:00;;;;;;;12.00;9.05;;;;;;;17.99;52.88;100415.22;4950475;28;20050;-80
2022/05/10 03:05:27;;;;;;;9.48;8.32;;;;;;;18.00;52.71;100416.03;4936608;28;20108;-86
2022/05/10 03:07:54;;;;;;;11.50;8.35;;;;;;;17.96;52.62;100414.69;4967719;28;20050;-85
2022/05/10 03:10:25;;;;;;;10.45;8.30;;;;;;;17.93;52.44;100415.88;4983100;28;20054;-85
2022/05/10 03:12:52;;;;;;;9.98;7.82;;;;;;;17.91;52.78;100417.06;4976454;28;20569;-83
2022/05/10 03:15:19;;;;;;;16.75;9.25;;;;;;;17.87;52.90;100419.25;4980602;28;20058;-83
2022/05/10 03:17:46;;;;;;;9.82;8.32;;;;;;;17.77;52.83;100421.22;4982441;28;20042;-82
2022/05/10 03:20:12;;;;;;;9.25;7.72;;;;;;;17.78;52.84;100421.09;4964519;28;20045;-83
2022/05/10 03:22:39;;;;;;;10.65;8.95;;;;;;;17.79;52.89;100413.84;4975431;28;20045;-79
2022/05/10 03:25:06;;;;;;;10.25;8.70;;;;;;;17.77;52.73;100414.00;4964336;28;20494;-79
2022/05/10 03:27:37;;;;;;;10.13;8.90;;;;;;;17.75;52.92;100416.03;4966110;28;20051;-79
2022/05/10 03:30:04;;;;;;;9.10;8.20;;;;;;;17.72;53.16;100416.38;4961223;28;20078;-79
2022/05/10 03:32:31;;;;;;;10.52;8.25;;;;;;;17.72;53.21;100421.72;4976496;28;20487;-79
2022/05/10 03:34:58;;;;;;;11.07;8.65;;;;;;;17.74;53.14;100422.41;4974146;28;20042;-78
2022/05/10 03:37:28;;;;;;;9.52;8.13;;;;;;;17.71;53.24;100420.06;4979664;28;20047;-79
2022/05/10 03:39:55;;;;;;;10.40;7.97;;;;;;;17.68;53.31;100417.72;4983754;28;20429;-79
2022/05/10 03:42:22;;;;;;;14.15;8.40;;;;;;;17.65;52.73;100419.88;4975044;28;20054;-79
2022/05/10 03:44:54;;;;;;;11.60;8.88;;;;;;;17.57;53.21;100418.88;4976187;28;20053;-79
2022/05/10 03:47:23;;;;;;;8.98;7.63;;;;;;;17.58;53.17;100415.19;4958945;28;20042;-79
2022/05/10 03:49:50;;;;;;;10.65;8.30;;;;;;;17.52;53.41;100421.22;4979747;28;20409;-79
2022/05/10 03:52:17;;;;;;;9.00;7.97;;;;;;;17.52;53.37;100418.53;4944756;28;20070;-79
2022/05/10 03:54:46;;;;;;;9.95;8.13;;;;;;;17.47;53.56;100412.81;4966403;28;20053;-78
2022/05/10 03:57:19;;;;;;;8.75;7.82;;;;;;;17.41;53.86;100412.66;4977221;28;20379;-79
2022/05/10 03:59:46;;;;;;;9.73;8.00;;;;;;;17.40;53.61;100417.16;4977805;28;20050;-80
2022/05/10 04:02:13;;;;;;;11.57;8.65;;;;;;;17.38;53.66;100407.59;4992264;28;20505;-79
2022/05/10 04:04:40;;;;;;;11.02;7.93;;;;;;;17.36;53.76;100410.47;4948364;28;20499;-80
2022/05/10 04:07:08;;;;;;;10.20;9.00;;;;;;;17.33;53.80;100410.81;4978920;28;20129;-79
2022/05/10 04:09:39;;;;;;;10.65;8.68;;;;;;;17.31;54.25;100408.28;4952382;28;20047;-79
2022/05/10 04:12:06;;;;;;;9.02;7.88;;;;;;;17.32;53.99;100399.22;4991503;28;20053;-79
2022/05/10 04:14:33;;;;;;;13.00;9.00;;;;;;;17.34;53.99;100396.38;4978802;28;20050;-81
2022/05/10 04:16:59;;;;;;;15.77;8.35;;;;;;;17.34;53.98;100402.56;4962045;28;20073;-79
2022/05/10 04:19:32;;;;;;;12.95;8.40;;;;;;;17.32;54.30;100407.25;4973433;28;20050;-79
2022/05/10 04:21:59;;;;;;;11.53;8.20;;;;;;;17.38;54.32;100395.03;4970828;28;20042;-79
2022/05/10 04:24:28;;;;;;;10.15;8.27;;;;;;;17.46;54.10;100397.72;4987657;28;20494;-79
2022/05/10 04:27:01;;;;;;;12.65;8.93;;;;;;;17.62;54.04;100402.25;4944230;28;20047;-79
2022/05/10 04:29:28;;;;;;;15.85;9.13;;;;;;;17.72;53.85;100400.25;4994779;28;20473;-79
2022/05/10 04:31:55;;;;;;;12.52;9.10;;;;;;;17.78;53.94;100402.28;4983261;28;20513;-79
2022/05/10 04:34:22;;;;;;;12.00;8.50;;;;;;;17.81;53.64;100408.31;4974249;28;20065;-79
2022/05/10 04:37:42;;;;;;;16.00;9.05;;;;;;;17.71;54.00;100409.31;4981178;28;20049;-79
2022/05/10 04:42:55;;;;;;;16.13;8.75;;;;;;;17.64;53.71;100421.75;4932739;28;20039;-78
2022/05/10 04:45:22;;;;;;;11.85;9.05;;;;;;;17.64;53.93;100421.75;4959153;28;20049;-78
2022/05/10 04:47:50;;;;;;;10.23;8.45;;;;;;;17.58;53.43;100420.56;4970366;28;20517;-77
2022/05/10 04:54:36;;;;;;;9.55;8.65;;;;;;;17.49;53.13;100426.09;4943975;28;20039;-79
2022/05/10 04:57:04;;;;;;;10.00;8.43;;;;;;;17.47;53.41;100433.47;4967563;28;20064;-76
2022/05/10 04:59:31;;;;;;;14.35;9.32;;;;;;;17.46;53.49;100437.16;4974603;28;20043;-77
2022/05/10 05:01:57;;;;;;;11.55;8.43;;;;;;;17.47;53.50;100434.31;4962728;28;20043;-77
2022/05/10 05:04:24;;;;;;;9.43;8.35;;;;;;;17.44;53.75;100442.69;4980259;28;20129;-77
2022/05/10 05:06:52;;;;;;;10.77;8.82;;;;;;;17.46;53.75;100442.53;4977041;28;20050;-77
2022/05/10 05:09:19;;;;;;;10.75;8.85;;;;;;;17.46;53.93;100451.44;4974135;28;20058;-79
2022/05/10 05:11:45;;;;;;;11.43;8.88;;;;;;;17.48;53.88;100452.09;4962217;28;20945;-79
2022/05/10 05:14:12;;;;;;;10.63;9.32;;;;;;;17.54;53.72;100451.44;4975366;28;20451;-77
2022/05/10 05:16:39;;;;;;;17.65;9.30;;;;;;;17.58;54.06;100450.09;4973544;28;20509;-77
2022/05/10 05:19:06;;;;;;;11.73;9.25;;;;;;;17.61;53.83;100445.41;4977121;28;20120;-78
2022/05/10 05:21:33;;;;;;;12.60;9.13;;;;;;;17.64;54.09;100456.66;4981671;28;20058;-77
2022/05/10 05:24:00;;;;;;;12.77;9.57;;;;;;;17.64;53.81;100447.75;4956952;28;20046;-80
2022/05/10 05:26:32;;;;;;;11.10;9.60;;;;;;;17.63;54.26;100449.63;4947135;28;20067;-79
2022/05/10 05:28:58;;;;;;;12.30;9.30;;;;;;;17.67;54.15;100453.63;4990032;28;20062;-76
2022/05/10 05:31:31;;;;;;;13.13;9.65;;;;;;;17.69;54.37;100445.41;4980331;28;20058;-76
2022/05/10 05:33:58;;;;;;;14.45;9.30;;;;;;;17.74;54.12;100443.91;4996087;28;20121;-75
2022/05/10 05:36:31;;;;;;;15.35;9.30;;;;;;;17.77;54.45;100445.41;4969033;28;20083;-75
2022/05/10 05:38:57;;;;;;;10.73;9.63;;;;;;;17.81;54.15;100445.94;4977639;28;20046;-77
2022/05/10 05:41:24;;;;;;;13.52;9.70;;;;;;;17.81;54.04;100443.25;4976423;28;20498;-78
2022/05/10 05:43:51;;;;;;;13.15;9.27;;;;;;;17.81;54.34;100437.88;4961384;28;20057;-78
2022/05/10 05:46:18;;;;;;;14.35;10.77;;;;;;;17.86;54.26;100443.59;4952599;28;20062;-79
2022/05/10 05:48:44;;;;;;;12.63;9.73;;;;;;;17.83;54.20;100435.88;4974700;28;20093;-79
2022/05/10 05:51:12;;;;;;;12.73;10.73;;;;;;;17.87;54.31;100434.53;4979476;28;20070;-78
2022/05/10 05:53:39;;;;;;;12.07;9.18;;;;;;;17.93;54.47;100434.69;4971235;28;20070;-78
2022/05/10 05:56:11;;;;;;;14.45;10.10;;;;;;;18.03;54.54;100433.69;4980619;28;20097;-78
2022/05/10 05:58:39;;;;;;;11.05;9.75;;;;;;;18.07;54.79;100440.41;4991600;28;20482;-77
2022/05/10 06:01:13;;;;;;;14.10;10.23;;;;;;;18.07;55.23;100438.56;4983230;28;20056;-79
2022/05/10 06:03:42;;;;;;;13.45;10.35;;;;;;;18.14;54.68;100433.31;4969448;28;20043;-79
2022/05/10 06:06:10;;;;;;;15.20;10.02;;;;;;;18.21;54.75;100431.63;4975981;28;20050;-78
2022/05/10 06:08:43;;;;;;;10.70;9.40;;;;;;;18.29;54.91;100425.41;4960002;28;20168;-77
2022/05/10 06:11:11;;;;;;;14.57;10.48;;;;;;;18.35;54.63;100425.56;4988372;28;20042;-79
2022/05/10 06:13:37;;;;;;;17.08;10.38;;;;;;;18.38;54.27;100433.28;4969865;28;20053;-82
2022/05/10 06:16:08;;;;;;;18.17;10.90;;;;;;;18.35;54.41;100428.25;4973931;28;20062;-80
2022/05/10 06:18:35;;;;;;;17.88;11.25;;;;;;;18.42;54.18;100425.72;4965421;28;20158;-79
2022/05/10 06:21:02;;;;;;;15.48;11.10;;;;;;;18.44;54.15;100431.75;4972013;28;20043;-80
2022/05/10 06:23:29;;;;;;;13.80;10.77;;;;;;;18.46;54.31;100420.81;4972417;28;20059;-79
2022/05/10 06:25:56;;;;;;;15.57;10.65;;;;;;;18.49;54.19;100420.47;4977306;28;20058;-77
2022/05/10 06:28:22;;;;;;;17.88;11.68;;;;;;;18.54;54.28;100426.19;4957504;28;20047;-78
2022/05/10 06:30:49;;;;;;;13.93;10.20;;;;;;;18.54;54.23;100421.63;4963909;28;20042;-77
2022/05/10 06:33:16;;;;;;;17.85;11.48;;;;;;;18.56;54.33;100424.16;4978936;28;20074;-77
2022/05/10 06:35:44;;;;;;;14.75;11.57;;;;;;;18.61;54.76;100422.63;4960334;28;20040;-77
2022/05/10 06:38:19;;;;;;;16.25;11.68;;;;;;;18.66;54.53;100427.47;4972963;28;20054;-78
2022/05/10 06:40:48;;;;;;;16.40;10.32;;;;;;;18.70;54.54;100419.88;4975522;28;20045;-77
2022/05/10 06:43:16;;;;;;;15.13;11.18;;;;;;;18.73;54.51;100420.41;4953114;28;20395;-77
2022/05/10 06:45:43;;;;;;;15.48;11.95;;;;;;;18.81;54.42;100419.56;4955368;28;20043;-77
2022/05/10 06:48:10;;;;;;;21.90;10.85;;;;;;;18.79;54.17;100419.72;4974967;28;20069;-80
2022/05/10 06:50:38;;;;;;;13.30;10.20;;;;;;;18.82;54.31;100416.66;4980831;28;20620;-80
2022/05/10 06:53:05;;;;;;;18.77;12.32;;;;;;;18.85;54.21;100407.41;4974226;28;20049;-80
2022/05/10 06:55:34;;;;;;;16.35;11.68;;;;;;;18.86;54.18;100411.78;4976146;28;20636;-80
2022/05/10 06:58:01;;;;;;;16.85;11.73;;;;;;;18.87;54.37;100413.47;4962054;28;20041;-80
2022/05/10 07:00:33;;;;;;;16.65;11.75;;;;;;;18.91;54.46;100409.41;4950542;28;20631;-80
2022/05/10 07:03:10;;;;;;;20.63;11.90;;;;;;;18.91;55.08;100412.09;4976211;28;20046;-80
2022/05/10 07:05:37;;;;;;;15.90;11.48;;;;;;;19.03;54.83;100412.53;4988176;28;20073;-77
2022/05/10 07:08:04;;;;;;;13.43;11.05;;;;;;;19.08;54.75;100410.16;4974649;28;20129;-78
2022/05/10 07:10:31;;;;;;;14.55;10.90;;;;;;;19.08;54.81;100416.41;4972486;28;20053;-78
2022/05/10 07:12:59;;;;;;;16.77;12.57;;;;;;;19.12;54.44;100407.97;4958168;28;20475;-78
2022/05/10 07:15:26;;;;;;;15.05;11.65;;;;;;;19.15;54.28;100408.44;4972704;28;20498;-77
2022/05/10 07:17:56;;;;;;;16.35;11.60;;;;;;;19.19;54.47;100411.63;4981095;28;20042;-77
2022/05/10 07:20:23;;;;;;;12.48;10.50;;;;;;;19.17;54.79;100406.41;4975589;28;20039;-77
2022/05/10 07:22:50;;;;;;;20.95;12.73;;;;;;;19.23;55.39;100408.41;4978892;28;20117;-78
2022/05/10 07:25:19;;;;;;;13.55;11.73;;;;;;;19.20;55.56;100403.34;4976510;28;20507;-77
2022/05/10 07:27:46;;;;;;;19.63;12.20;;;;;;;19.28;55.39;100407.84;4978291;28;20055;-78
2022/05/10 07:30:14;;;;;;;17.58;11.57;;;;;;;19.25;55.85;100403.66;4976987;28;20117;-78
2022/05/10 07:32:41;;;;;;;17.48;11.63;;;;;;;19.28;55.61;100402.47;4988792;28;20399;-79
2022/05/10 07:35:08;;;;;;;20.27;12.57;;;;;;;19.32;55.55;100403.78;4978376;28;20394;-78
2022/05/10 07:37:35;;;;;;;19.70;13.00;;;;;;;19.39;55.39;100403.94;4979514;28;20050;-78
2022/05/10 07:40:03;;;;;;;16.13;12.20;;;;;;;19.38;55.74;100407.63;4964136;28;20409;-79
2022/05/10 07:42:31;;;;;;;16.30;12.45;;;;;;;19.39;55.58;100406.63;4957533;28;20446;-83
2022/05/10 07:44:58;;;;;;;13.45;11.73;;;;;;;19.41;55.58;100405.41;4948479;28;20071;-82
2022/05/10 07:47:24;;;;;;;15.55;11.75;;;;;;;19.43;56.10;100394.44;4977379;28;20034;-84
2022/05/10 07:49:51;;;;;;;14.57;12.05;;;;;;;19.51;55.72;100397.06;4974835;28;20057;-83
2022/05/10 07:52:18;;;;;;;19.35;12.05;;;;;;;19.55;55.69;100395.72;4978444;28;20050;-82
2022/05/10 07:54:44;;;;;;;17.25;12.70;;;;;;;19.61;55.38;100397.66;4978512;28;20051;-82
2022/05/10 07:57:11;;;;;;;16.50;12.35;;;;;;;19.66;55.58;100397.13;4976499;28;20049;-81
2022/05/10 07:59:38;;;;;;;15.40;13.07;;;;;;;19.68;55.60;100392.44;4975083;28;20068;-82
2022/05/10 08:02:05;;;;;;;15.13;13.00;;;;;;;19.68;55.63;100392.44;4975146;28;20042;-81
2022/05/10 08:04:33;;;;;;;18.45;13.48;;;;;;;19.72;56.00;100388.38;4978025;28;20532;-81
2022/05/10 08:07:02;;;;;;;13.48;11.98;;;;;;;19.76;56.40;100394.22;4964642;28;20058;-80
2022/05/10 08:09:29;;;;;;;17.38;13.02;;;;;;;19.80;56.36;100390.16;4974456;28;20047;-81
2022/05/10 08:11:57;;;;;;;16.95;13.10;;;;;;;19.91;56.05;100389.69;4979856;28;20045;-81
2022/05/10 08:14:24;;;;;;;15.73;12.90;;;;;;;19.92;56.13;100394.91;4989022;28;20043;-87
2022/05/10 08:16:53;;;;;;;16.35;12.25;;;;;;;19.94;56.11;100386.63;4973296;28;20051;-87
2022/05/10 08:19:19;;;;;;;16.35;12.27;;;;;;;20.01;56.44;100384.06;4952569;28;20077;-87
2022/05/10 08:21:47;;;;;;;18.25;12.32;;;;;;;20.02;56.68;100383.84;4966451;28;20055;-87
2022/05/10 08:24:14;;;;;;;21.80;13.63;;;;;;;20.03;56.86;100373.94;4971071;28;20046;-86
2022/05/10 08:26:41;;;;;;;16.60;12.10;;;;;;;20.01;57.04;100375.97;4967614;28;20042;-86
2022/05/10 08:29:08;;;;;;;18.58;14.02;;;;;;;20.03;56.90;100374.75;4944868;28;20502;-82
2022/05/10 08:31:35;;;;;;;20.70;13.38;;;;;;;20.09;57.03;100376.72;4983607;28;20042;-83
2022/05/10 08:34:02;;;;;;;20.45;13.85;;;;;;;20.14;56.96;100373.47;4980592;28;20038;-82
2022/05/10 08:36:29;;;;;;;15.57;13.88;;;;;;;20.17;56.46;100375.78;4977213;28;20054;-84
2022/05/10 08:38:55;;;;;;;18.38;13.32;;;;;;;20.13;56.68;100374.50;4972729;28;20788;-84
2022/05/10 08:41:26;;;;;;;18.80;12.40;;;;;;;20.12;57.20;100373.66;4921041;28;20154;-81
2022/05/10 08:44:03;;;;;;;15.85;12.50;;;;;;;20.16;57.14;100374.94;4959648;28;20043;-81
2022/05/10 08:46:33;;;;;;;15.10;13.48;;;;;;;20.22;57.10;100367.16;4959793;28;20051;-81
2022/05/10 08:49:06;;;;;;;18.88;13.40;;;;;;;20.27;57.56;100362.84;4972902;28;20045;-81
2022/05/10 08:51:33;;;;;;;16.95;13.07;;;;;;;20.35;57.56;100368.19;4962697;28;20438;-83
2022/05/10 08:54:00;;;;;;;16.50;13.35;;;;;;;20.39;56.93;100365.94;4955424;28;20053;-81
2022/05/10 08:56:45;;;;;;;13.93;12.40;;;;;;;20.30;57.16;100361.66;4975463;28;20405;-81
2022/05/10 08:59:27;;;;;;;16.40;12.85;;;;;;;20.34;57.49;100368.34;4979558;28;20113;-80
2022/05/10 09:02:12;;;;;;;15.50;12.65;;;;;;;20.43;57.16;100366.38;4942838;28;20042;-80
2022/05/10 09:04:55;;;;;;;17.08;13.43;;;;;;;20.48;56.97;100359.44;4933547;28;20059;-78
2022/05/10 09:07:52;;;;;;;18.60;13.43;;;;;;;20.43;57.54;100356.47;4956094;28;20073;-79
2022/05/10 09:10:41;;;;;;;17.42;14.00;;;;;;;20.54;56.69;100355.13;4952671;28;20065;-78
2022/05/10 09:13:11;;;;;;;14.57;12.60;;;;;;;20.54;57.24;100353.31;4951408;28;20049;-78
2022/05/10 09:15:40;;;;;;;15.23;13.02;;;;;;;20.64;57.38;100349.50;4965753;28;20063;-79
2022/05/10 09:18:25;;;;;;;17.10;11.93;;;;;;;20.70;57.19;100346.03;4933250;28;20056;-81
2022/05/10 09:20:59;;;;;;;17.63;13.55;;;;;;;20.69;56.94;100336.25;4946608;28;20521;-80
2022/05/10 09:23:40;;;;;;;15.30;13.32;;;;;;;20.63;56.97;100345.94;4958320;28;20459;-79
2022/05/10 09:26:09;;;;;;;21.50;13.52;;;;;;;20.66;57.79;100337.47;4963123;28;20047;-81
2022/05/10 09:28:44;;;;;;;16.05;13.05;;;;;;;20.69;57.36;100334.41;4956709;28;20050;-80
2022/05/10 09:34:48;;;;;;;20.85;15.77;;;;;;;20.84;57.17;100341.59;4932302;28;20640;-79
2022/05/10 09:37:15;;;;;;;17.02;14.30;;;;;;;20.85;57.11;100330.63;4978858;28;20042;-79
2022/05/10 09:40:05;;;;;;;21.20;15.32;;;;;;;20.95;57.17;100336.56;4972537;28;20061;-79
2022/05/10 09:43:10;;;;;;;18.08;14.23;;;;;;;20.90;58.68;100333.59;4970679;28;20054;-81
2022/05/10 09:45:38;;;;;;;18.73;14.20;;;;;;;21.09;57.84;100333.97;4963453;28;20082;-82
2022/05/10 09:48:08;;;;;;;18.40;13.02;;;;;;;21.12;57.56;100323.66;4954384;28;20137;-81
2022/05/10 09:50:50;;;;;;;18.10;13.63;;;;;;;21.16;57.14;100330.31;4971326;28;20065;-81
2022/05/10 09:53:25;;;;;;;22.13;14.40;;;;;;;21.27;57.08;100328.13;4940971;28;20054;-81
2022/05/10 09:56:04;;;;;;;17.10;13.43;;;;;;;21.25;57.88;100325.66;4958687;28;20460;-81
2022/05/10 09:58:37;;;;;;;17.17;13.00;;;;;;;21.32;56.96;100318.44;4957469;28;20049;-80
2022/05/10 10:01:06;;;;;;;17.38;12.38;;;;;;;21.35;56.15;100319.91;4957445;28;20537;-79
2022/05/10 10:03:39;;;;;;;13.55;11.27;;;;;;;21.49;54.85;100327.13;4963285;28;20161;-79
2022/05/10 10:06:25;;;;;;;16.65;12.32;;;;;;;21.37;55.22;100318.69;4970331;28;20095;-78
2022/05/10 10:08:54;;;;;;;16.10;12.40;;;;;;;21.46;55.58;100312.13;4941708;28;20035;-79
2022/05/10 10:11:26;;;;;;;15.75;12.52;;;;;;;21.49;55.41;100319.00;4973048;28;20035;-79
2022/05/10 10:13:57;;;;;;;15.80;11.48;;;;;;;21.57;55.54;100313.47;4979724;28;20060;-79
2022/05/10 10:16:30;;;;;;;18.13;10.85;;;;;;;21.57;55.68;100307.22;4981088;28;20046;-81
2022/05/10 10:19:05;;;;;;;14.18;11.32;;;;;;;21.57;55.33;100302.66;4966976;28;20081;-78
2022/05/10 10:21:37;;;;;;;17.92;11.50;;;;;;;21.62;55.95;100294.78;4974143;28;20046;-79
2022/05/10 10:24:04;;;;;;;11.32;8.73;;;;;;;21.69;54.75;100302.97;4991410;28;20046;-78
2022/05/10 10:26:49;;;;;;;11.02;9.40;;;;;;;21.68;53.20;100296.72;4975045;28;20046;-80
2022/05/10 10:29:23;;;;;;;11.52;9.75;;;;;;;21.74;52.80;100291.56;4974367;28;20038;-81
2022/05/10 10:31:54;;;;;;;9.82;8.82;;;;;;;21.77;51.75;100291.16;4979094;28;20075;-80
2022/05/10 10:34:49;;;;;;;11.07;9.25;;;;;;;21.85;52.11;100288.28;4991718;28;20086;-81
2022/05/10 10:37:28;;;;;;;11.95;9.38;;;;;;;21.97;51.61;100285.88;4951443;28;20042;-82
2022/05/10 10:40:25;;;;;;;12.25;9.55;;;;;;;22.02;51.22;100286.94;4973598;28;20050;-81
2022/05/10 10:43:28;;;;;;;8.77;7.95;;;;;;;22.04;49.40;100281.34;4936324;28;20045;-80
2022/05/10 10:46:10;;;;;;;9.48;8.45;;;;;;;22.08;50.29;100272.66;4901075;28;20049;-80
2022/05/10 10:49:23;;;;;;;9.68;8.15;;;;;;;22.11;49.39;100272.25;4977267;28;20061;-79
2022/05/10 10:51:51;;;;;;;9.25;8.05;;;;;;;22.32;51.22;100267.78;4866511;28;20062;-80
2022/05/10 10:54:21;;;;;;;9.90;8.32;;;;;;;22.37;50.76;100267.19;4985694;28;20664;-80
2022/05/10 10:57:06;;;;;;;9.80;7.88;;;;;;;22.26;48.20;100266.72;4956473;28;20229;-81
2022/05/10 10:59:39;;;;;;;8.20;7.32;;;;;;;22.40;48.40;100255.94;4955246;28;20051;-80
2022/05/10 11:02:16;;;;;;;9.35;7.32;;;;;;;22.46;49.23;100253.25;4948926;28;20053;-84
2022/05/10 11:04:50;;;;;;;9.57;7.88;;;;;;;22.50;48.58;100242.88;4955833;28;20568;-81
2022/05/10 11:07:27;;;;;;;8.77;7.50;;;;;;;22.57;47.64;100257.25;4976961;28;20061;-79
2022/05/10 11:10:06;;;;;;;12.85;8.35;;;;;;;22.55;47.61;100248.50;4966264;28;20440;-81
2022/05/10 11:12:46;;;;;;;9.10;8.30;;;;;;;22.53;46.86;100247.88;4975014;28;20449;-83
2022/05/10 11:15:34;;;;;;;10.80;7.63;;;;;;;22.54;46.31;100246.81;4919630;28;20137;-83
2022/05/10 11:18:13;;;;;;;9.25;7.45;;;;;;;22.60;47.83;100246.00;4943485;28;20043;-82
2022/05/10 11:20:45;;;;;;;9.15;8.25;;;;;;;22.68;48.40;100237.69;4995717;28;20126;-83
2022/05/10 11:23:42;;;;;;;10.50;8.40;;;;;;;22.72;48.04;100238.97;4958724;28;20050;-80
2022/05/10 11:26:21;;;;;;;10.27;8.25;;;;;;;22.78;47.63;100237.31;4916637;28;20133;-79
2022/05/10 11:29:10;;;;;;;11.32;8.10;;;;;;;22.84;48.58;100227.53;4976457;28;20050;-79
2022/05/10 11:31:47;;;;;;;9.50;8.52;;;;;;;22.75;46.68;100226.91;4955838;28;20061;-79
2022/05/10 11:34:27;;;;;;;12.40;8.18;;;;;;;22.82;47.31;100233.16;4976850;28;20046;-79
2022/05/10 11:37:01;;;;;;;10.00;8.70;;;;;;;22.84;47.72;100227.53;4940369;28;20483;-79
2022/05/10 11:39:41;;;;;;;9.15;8.23;;;;;;;22.87;46.80;100221.69;4966192;28;20125;-80
2022/05/10 11:42:32;;;;;;;9.75;8.85;;;;;;;22.81;46.31;100217.94;4969886;28;20493;-79
2022/05/10 11:45:38;;;;;;;9.65;7.88;;;;;;;22.78;46.00;100221.06;4974565;28;20046;-79
2022/05/10 11:48:39;;;;;;;12.20;8.68;;;;;;;22.76;46.73;100217.72;4936716;28;20039;-82
2022/05/10 11:51:42;;;;;;;7.80;7.05;;;;;;;22.79;47.05;100219.19;4976916;28;20383;-79
2022/05/10 11:54:27;;;;;;;8.90;7.97;;;;;;;22.73;46.19;100212.72;4896106;28;20465;-80